Terminal Aerodrome Forecast
Issued by NWS

Current Version | Previous Version | Graphics & Text | Print | Product List | Glossary On
Versions: 1 2 3 4 5 6 7 8 9 10 11 12 13 14 15 16 17 18 19 20 21 22 23 24 25
000
FTUS41 KRLX 250900 AAB
TAFCKB
TAF AMD
KCKB 250923Z 2509/2606 20007KT P6SM BKN040
     FM251400 24006KT P6SM SCT040
     FM251700 24008G20KT P6SM SCT040
     FM252000 24006KT P6SM BKN200
     FM260400 00000KT P6SM BKN070=

USA.gov is the U.S. government's official web portal to all federal, state and local government web resources and services.